sensor_id;sensor_type;location;lat;lon;timestamp;pressure;altitude;pressure_sealevel;temperature;humidity
7376;BME280;3728;42.266;24.944;2023-04-01T00:01:13;98720.97;;;11.33;78.76
7376;BME280;3728;42.266;24.944;2023-04-01T00:03:42;98727.25;;;11.52;78.91
7376;BME280;3728;42.266;24.944;2023-04-01T00:06:15;98733.72;;;11.67;77.67
7376;BME280;3728;42.266;24.944;2023-04-01T00:08:45;98734.56;;;11.47;78.08
7376;BME280;3728;42.266;24.944;2023-04-01T00:11:13;98738.94;;;11.22;79.09
7376;BME280;3728;42.266;24.944;2023-04-01T00:13:41;98737.13;;;11.02;80.26
7376;BME280;3728;42.266;24.944;2023-04-01T00:16:12;98733.47;;;11.15;79.90
7376;BME280;3728;42.266;24.944;2023-04-01T00:18:48;98734.25;;;10.95;80.10
7376;BME280;3728;42.266;24.944;2023-04-01T00:21:17;98748.03;;;10.83;80.58
7376;BME280;3728;42.266;24.944;2023-04-01T00:23:47;98741.88;;;10.88;79.91
7376;BME280;3728;42.266;24.944;2023-04-01T00:26:15;98728.72;;;10.76;80.50
7376;BME280;3728;42.266;24.944;2023-04-01T00:28:45;98729.53;;;10.68;81.00
7376;BME280;3728;42.266;24.944;2023-04-01T00:31:14;98729.78;;;10.75;80.71
7376;BME280;3728;42.266;24.944;2023-04-01T00:33:42;98725.50;;;10.70;81.10
7376;BME280;3728;42.266;24.944;2023-04-01T00:38:39;98724.16;;;10.85;79.78
7376;BME280;3728;42.266;24.944;2023-04-01T00:41:09;98730.47;;;11.05;78.74
7376;BME280;3728;42.266;24.944;2023-04-01T00:43:43;98732.97;;;11.01;78.10
7376;BME280;3728;42.266;24.944;2023-04-01T00:46:12;98738.41;;;10.96;78.33
7376;BME280;3728;42.266;24.944;2023-04-01T00:48:47;98734.50;;;10.81;79.41
7376;BME280;3728;42.266;24.944;2023-04-01T00:51:20;98734.25;;;10.74;79.74
7376;BME280;3728;42.266;24.944;2023-04-01T00:53:52;98727.03;;;10.92;79.30
7376;BME280;3728;42.266;24.944;2023-04-01T00:56:32;98730.53;;;10.96;78.45
7376;BME280;3728;42.266;24.944;2023-04-01T00:59:10;98729.84;;;10.87;79.50
7376;BME280;3728;42.266;24.944;2023-04-01T01:01:43;98731.00;;;10.77;79.23
7376;BME280;3728;42.266;24.944;2023-04-01T01:04:29;98731.50;;;10.71;79.37
7376;BME280;3728;42.266;24.944;2023-04-01T01:13:19;98713.31;;;10.95;79.11
7376;BME280;3728;42.266;24.944;2023-04-01T01:16:21;98714.97;;;11.12;77.92
7376;BME280;3728;42.266;24.944;2023-04-01T01:22:18;98716.66;;;10.95;79.48
7376;BME280;3728;42.266;24.944;2023-04-01T01:24:57;98714.38;;;10.94;79.08
7376;BME280;3728;42.266;24.944;2023-04-01T01:31:07;98729.56;;;11.00;79.38
7376;BME280;3728;42.266;24.944;2023-04-01T01:34:02;98727.09;;;11.04;79.83
7376;BME280;3728;42.266;24.944;2023-04-01T01:36:53;98715.63;;;11.41;77.84
7376;BME280;3728;42.266;24.944;2023-04-01T01:39:27;98717.59;;;11.32;78.57
7376;BME280;3728;42.266;24.944;2023-04-01T01:42:13;98718.22;;;11.29;78.48
7376;BME280;3728;42.266;24.944;2023-04-01T01:44:44;98715.56;;;11.17;78.96
7376;BME280;3728;42.266;24.944;2023-04-01T01:47:13;98701.63;;;11.25;78.32
7376;BME280;3728;42.266;24.944;2023-04-01T01:49:43;98702.16;;;11.19;78.47
7376;BME280;3728;42.266;24.944;2023-04-01T01:52:12;98697.41;;;11.12;79.27
7376;BME280;3728;42.266;24.944;2023-04-01T01:54:51;98691.53;;;11.15;79.13
7376;BME280;3728;42.266;24.944;2023-04-01T01:57:34;98687.16;;;11.19;79.76
7376;BME280;3728;42.266;24.944;2023-04-01T02:00:09;98684.25;;;11.21;79.38
7376;BME280;3728;42.266;24.944;2023-04-01T02:02:44;98681.19;;;11.19;79.69
7376;BME280;3728;42.266;24.944;2023-04-01T02:05:26;98675.81;;;11.15;79.93
7376;BME280;3728;42.266;24.944;2023-04-01T02:08:11;98674.50;;;11.21;79.45
7376;BME280;3728;42.266;24.944;2023-04-01T02:11:03;98679.59;;;11.06;78.98
7376;BME280;3728;42.266;24.944;2023-04-01T02:14:05;98677.28;;;10.92;79.76
7376;BME280;3728;42.266;24.944;2023-04-01T02:16:42;98682.25;;;10.85;80.12
7376;BME280;3728;42.266;24.944;2023-04-01T02:22:43;98686.38;;;10.74;80.86
7376;BME280;3728;42.266;24.944;2023-04-01T02:25:29;98683.53;;;10.99;80.24
7376;BME280;3728;42.266;24.944;2023-04-01T02:28:02;98686.09;;;10.87;79.00
7376;BME280;3728;42.266;24.944;2023-04-01T02:30:35;98686.03;;;10.55;80.32
7376;BME280;3728;42.266;24.944;2023-04-01T02:33:08;98694.09;;;10.20;82.10
7376;BME280;3728;42.266;24.944;2023-04-01T02:35:36;98688.94;;;10.12;82.81
7376;BME280;3728;42.266;24.944;2023-04-01T02:38:06;98695.59;;;10.01;83.78
7376;BME280;3728;42.266;24.944;2023-04-01T02:40:48;98698.66;;;10.03;84.13
7376;BME280;3728;42.266;24.944;2023-04-01T02:43:18;98700.81;;;10.01;84.05
7376;BME280;3728;42.266;24.944;2023-04-01T02:45:47;98689.06;;;10.07;84.07
7376;BME280;3728;42.266;24.944;2023-04-01T02:48:15;98688.94;;;10.03;83.85
7376;BME280;3728;42.266;24.944;2023-04-01T02:50:42;98686.47;;;10.07;84.27
7376;BME280;3728;42.266;24.944;2023-04-01T02:53:10;98686.38;;;9.95;85.14
7376;BME280;3728;42.266;24.944;2023-04-01T02:55:38;98678.56;;;9.86;85.70
7376;BME280;3728;42.266;24.944;2023-04-01T02:58:06;98690.09;;;9.85;85.01
7376;BME280;3728;42.266;24.944;2023-04-01T03:00:33;98695.88;;;9.70;85.17
7376;BME280;3728;42.266;24.944;2023-04-01T03:03:01;98686.16;;;9.79;85.04
7376;BME280;3728;42.266;24.944;2023-04-01T03:05:29;98688.09;;;9.82;85.64
7376;BME280;3728;42.266;24.944;2023-04-01T03:07:57;98696.44;;;9.84;85.82
7376;BME280;3728;42.266;24.944;2023-04-01T03:10:25;98693.81;;;9.84;86.49
7376;BME280;3728;42.266;24.944;2023-04-01T03:12:53;98684.16;;;9.76;86.87
7376;BME280;3728;42.266;24.944;2023-04-01T03:15:20;98676.19;;;9.64;87.79
7376;BME280;3728;42.266;24.944;2023-04-01T03:17:48;98671.22;;;9.80;88.65
7376;BME280;3728;42.266;24.944;2023-04-01T03:20:16;98670.56;;;9.83;88.07
7376;BME280;3728;42.266;24.944;2023-04-01T03:22:44;98663.06;;;9.81;88.05
7376;BME280;3728;42.266;24.944;2023-04-01T03:25:12;98667.78;;;9.88;88.07
7376;BME280;3728;42.266;24.944;2023-04-01T03:27:40;98664.22;;;9.92;87.52
7376;BME280;3728;42.266;24.944;2023-04-01T03:30:08;98655.59;;;9.92;87.05
7376;BME280;3728;42.266;24.944;2023-04-01T03:32:44;98658.19;;;10.00;87.21
7376;BME280;3728;42.266;24.944;2023-04-01T03:35:12;98651.06;;;10.09;86.00
7376;BME280;3728;42.266;24.944;2023-04-01T03:37:40;98645.75;;;9.97;87.04
7376;BME280;3728;42.266;24.944;2023-04-01T03:40:08;98632.16;;;10.12;87.39
7376;BME280;3728;42.266;24.944;2023-04-01T03:42:36;98637.38;;;10.12;86.41
7376;BME280;3728;42.266;24.944;2023-04-01T03:45:04;98640.94;;;10.08;85.84
7376;BME280;3728;42.266;24.944;2023-04-01T03:47:33;98642.13;;;10.10;86.15
7376;BME280;3728;42.266;24.944;2023-04-01T03:50:01;98641.50;;;10.13;85.59
7376;BME280;3728;42.266;24.944;2023-04-01T03:52:28;98640.25;;;10.19;85.39
7376;BME280;3728;42.266;24.944;2023-04-01T03:54:56;98640.25;;;10.40;84.82
7376;BME280;3728;42.266;24.944;2023-04-01T03:57:24;98651.47;;;10.20;85.05
7376;BME280;3728;42.266;24.944;2023-04-01T03:59:54;98644.47;;;10.03;86.57
7376;BME280;3728;42.266;24.944;2023-04-01T04:02:22;98648.63;;;10.04;86.50
7376;BME280;3728;42.266;24.944;2023-04-01T04:04:50;98648.63;;;10.04;85.96
7376;BME280;3728;42.266;24.944;2023-04-01T04:07:17;98647.19;;;10.15;85.47
7376;BME280;3728;42.266;24.944;2023-04-01T04:09:58;98653.09;;;10.04;84.88
7376;BME280;3728;42.266;24.944;2023-04-01T04:12:26;98656.78;;;10.03;84.98
7376;BME280;3728;42.266;24.944;2023-04-01T04:14:53;98644.03;;;10.01;85.26
7376;BME280;3728;42.266;24.944;2023-04-01T04:17:21;98645.91;;;9.92;84.95
7376;BME280;3728;42.266;24.944;2023-04-01T04:19:49;98637.31;;;9.92;85.79
7376;BME280;3728;42.266;24.944;2023-04-01T04:22:17;98628.19;;;9.77;86.63
7376;BME280;3728;42.266;24.944;2023-04-01T04:24:44;98630.31;;;9.75;87.39
7376;BME280;3728;42.266;24.944;2023-04-01T04:27:12;98631.09;;;9.76;87.64
7376;BME280;3728;42.266;24.944;2023-04-01T04:29:53;98629.69;;;9.78;88.32
7376;BME280;3728;42.266;24.944;2023-04-01T04:32:21;98625.28;;;9.70;88.92
7376;BME280;3728;42.266;24.944;2023-04-01T04:34:49;98637.25;;;9.80;89.34
7376;BME280;3728;42.266;24.944;2023-04-01T04:37:17;98636.59;;;9.83;89.20
7376;BME280;3728;42.266;24.944;2023-04-01T04:39:45;98627.25;;;9.73;89.29
7376;BME280;3728;42.266;24.944;2023-04-01T04:42:15;98637.63;;;9.90;89.08
7376;BME280;3728;42.266;24.944;2023-04-01T04:44:43;98645.22;;;10.12;87.51
7376;BME280;3728;42.266;24.944;2023-04-01T04:47:11;98643.19;;;10.18;86.67
7376;BME280;3728;42.266;24.944;2023-04-01T04:49:39;98642.19;;;10.31;85.72
7376;BME280;3728;42.266;24.944;2023-04-01T04:52:08;98648.97;;;10.53;84.71
7376;BME280;3728;42.266;24.944;2023-04-01T04:54:39;98650.34;;;10.71;84.69
7376;BME280;3728;42.266;24.944;2023-04-01T04:57:07;98646.31;;;10.73;84.50
7376;BME280;3728;42.266;24.944;2023-04-01T04:59:42;98650.44;;;10.74;84.29
7376;BME280;3728;42.266;24.944;2023-04-01T05:02:23;98645.47;;;10.81;83.42
7376;BME280;3728;42.266;24.944;2023-04-01T05:04:52;98653.44;;;10.85;83.09
7376;BME280;3728;42.266;24.944;2023-04-01T05:07:20;98646.56;;;10.80;82.60
7376;BME280;3728;42.266;24.944;2023-04-01T05:09:48;98646.88;;;10.79;83.33
7376;BME280;3728;42.266;24.944;2023-04-01T05:12:16;98651.50;;;10.94;82.92
7376;BME280;3728;42.266;24.944;2023-04-01T05:14:58;98646.56;;;11.13;82.34
7376;BME280;3728;42.266;24.944;2023-04-01T05:17:26;98643.41;;;11.20;83.01
7376;BME280;3728;42.266;24.944;2023-04-01T05:19:53;98646.25;;;11.27;82.46
7376;BME280;3728;42.266;24.944;2023-04-01T05:22:24;98643.19;;;11.25;83.19
7376;BME280;3728;42.266;24.944;2023-04-01T05:24:52;98636.34;;;11.32;83.30
7376;BME280;3728;42.266;24.944;2023-04-01T05:27:19;98642.56;;;11.40;83.22
7376;BME280;3728;42.266;24.944;2023-04-01T05:29:47;98638.97;;;11.56;81.80
7376;BME280;3728;42.266;24.944;2023-04-01T05:32:36;98637.66;;;11.62;82.09
7376;BME280;3728;42.266;24.944;2023-04-01T05:35:04;98629.84;;;11.75;81.54
7376;BME280;3728;42.266;24.944;2023-04-01T05:37:34;98612.69;;;11.77;81.59
7376;BME280;3728;42.266;24.944;2023-04-01T05:40:04;98612.31;;;11.66;81.85
7376;BME280;3728;42.266;24.944;2023-04-01T05:42:33;98606.63;;;11.64;81.64
7376;BME280;3728;42.266;24.944;2023-04-01T05:45:03;98606.44;;;11.70;82.17
7376;BME280;3728;42.266;24.944;2023-04-01T05:47:50;98594.19;;;11.74;81.68
7376;BME280;3728;42.266;24.944;2023-04-01T05:50:18;98601.97;;;11.82;81.79
7376;BME280;3728;42.266;24.944;2023-04-01T05:52:48;98586.97;;;11.83;81.32
7376;BME280;3728;42.266;24.944;2023-04-01T05:55:16;98589.06;;;11.89;80.46
7376;BME280;3728;42.266;24.944;2023-04-01T05:57:46;98575.25;;;11.92;80.30
7376;BME280;3728;42.266;24.944;2023-04-01T06:00:17;98583.25;;;11.96;80.34
7376;BME280;3728;42.266;24.944;2023-04-01T06:02:47;98578.84;;;12.12;79.78
7376;BME280;3728;42.266;24.944;2023-04-01T06:05:23;98578.50;;;12.13;80.93
7376;BME280;3728;42.266;24.944;2023-04-01T06:08:05;98581.44;;;12.24;82.21
7376;BME280;3728;42.266;24.944;2023-04-01T06:10:45;98575.56;;;12.15;82.78
7376;BME280;3728;42.266;24.944;2023-04-01T06:19:44;98551.25;;;12.18;85.36
7376;BME280;3728;42.266;24.944;2023-04-01T06:22:26;98544.03;;;12.27;84.61
7376;BME280;3728;42.266;24.944;2023-04-01T06:39:50;98548.91;;;12.99;80.85
7376;BME280;3728;42.266;24.944;2023-04-01T06:53:10;98542.38;;;13.25;80.39
7376;BME280;3728;42.266;24.944;2023-04-01T06:56:17;98528.47;;;13.24;81.16
7376;BME280;3728;42.266;24.944;2023-04-01T06:59:17;98552.66;;;13.30;81.71
7376;BME280;3728;42.266;24.944;2023-04-01T07:02:11;98566.47;;;13.42;82.40
7376;BME280;3728;42.266;24.944;2023-04-01T07:05:23;98577.00;;;13.42;79.82
7376;BME280;3728;42.266;24.944;2023-04-01T07:07:53;98573.81;;;13.52;79.83
7376;BME280;3728;42.266;24.944;2023-04-01T07:10:43;98574.44;;;13.81;79.37
7376;BME280;3728;42.266;24.944;2023-04-01T07:16:52;98564.78;;;14.58;75.85
7376;BME280;3728;42.266;24.944;2023-04-01T07:19:39;98554.28;;;14.84;73.80
7376;BME280;3728;42.266;24.944;2023-04-01T07:22:42;98533.41;;;14.72;73.37
7376;BME280;3728;42.266;24.944;2023-04-01T07:25:44;98521.88;;;15.02;73.46
7376;BME280;3728;42.266;24.944;2023-04-01T07:28:37;98517.94;;;15.42;71.58
7376;BME280;3728;42.266;24.944;2023-04-01T07:31:32;98503.91;;;15.60;71.17
7376;BME280;3728;42.266;24.944;2023-04-01T07:40:56;98509.72;;;16.03;66.11
7376;BME280;3728;42.266;24.944;2023-04-01T07:44:06;98521.22;;;16.21;66.33
7376;BME280;3728;42.266;24.944;2023-04-01T07:53:12;98499.84;;;17.14;61.99
7376;BME280;3728;42.266;24.944;2023-04-01T07:56:03;98478.19;;;16.97;64.78
7376;BME280;3728;42.266;24.944;2023-04-01T07:59:02;98472.28;;;17.18;64.10
7376;BME280;3728;42.266;24.944;2023-04-01T08:07:17;98480.59;;;17.17;60.61
7376;BME280;3728;42.266;24.944;2023-04-01T08:17:08;98479.19;;;17.33;61.34
7376;BME280;3728;42.266;24.944;2023-04-01T08:20:07;98470.69;;;17.06;61.78
7376;BME280;3728;42.266;24.944;2023-04-01T08:23:19;98461.94;;;16.99;61.45
7376;BME280;3728;42.266;24.944;2023-04-01T08:26:00;98461.84;;;16.81;64.23
7376;BME280;3728;42.266;24.944;2023-04-01T08:28:41;98446.03;;;16.88;64.38
7376;BME280;3728;42.266;24.944;2023-04-01T08:34:23;98432.16;;;17.09;62.04
7376;BME280;3728;42.266;24.944;2023-04-01T08:37:04;98432.50;;;17.04;62.13
7376;BME280;3728;42.266;24.944;2023-04-01T08:40:02;98418.38;;;16.79;64.43
7376;BME280;3728;42.266;24.944;2023-04-01T08:46:20;98411.94;;;16.76;65.06
7376;BME280;3728;42.266;24.944;2023-04-01T08:49:25;98407.34;;;16.70;66.03
7376;BME280;3728;42.266;24.944;2023-04-01T09:10:57;98357.31;;;17.01;64.79
7376;BME280;3728;42.266;24.944;2023-04-01T09:36:03;98303.56;;;18.01;60.83
7376;BME280;3728;42.266;24.944;2023-04-01T09:39:06;98296.38;;;18.16;59.33
7376;BME280;3728;42.266;24.944;2023-04-01T09:42:38;98300.16;;;18.47;58.78
7376;BME280;3728;42.266;24.944;2023-04-01T10:00:33;98282.41;;;19.44;55.65
7376;BME280;3728;42.266;24.944;2023-04-01T10:16:14;98259.00;;;19.87;51.71
7376;BME280;3728;42.266;24.944;2023-04-01T10:32:43;98214.94;;;19.38;53.67
7376;BME280;3728;42.266;24.944;2023-04-01T10:35:44;98204.75;;;19.23;55.48
7376;BME280;3728;42.266;24.944;2023-04-01T10:41:48;98197.25;;;19.72;56.66
7376;BME280;3728;42.266;24.944;2023-04-01T11:17:42;98095.94;;;21.48;54.75
7376;BME280;3728;42.266;24.944;2023-04-01T11:23:53;98073.84;;;22.49;53.68
7376;BME280;3728;42.266;24.944;2023-04-01T11:33:04;98068.25;;;23.60;46.81
7376;BME280;3728;42.266;24.944;2023-04-01T11:42:11;98055.44;;;24.25;45.32
7376;BME280;3728;42.266;24.944;2023-04-01T11:48:34;98043.38;;;24.96;42.14
7376;BME280;3728;42.266;24.944;2023-04-01T11:55:02;98026.97;;;24.69;42.90
7376;BME280;3728;42.266;24.944;2023-04-01T11:58:03;98012.63;;;24.51;42.63
7376;BME280;3728;42.266;24.944;2023-04-01T12:13:14;97990.16;;;24.48;42.56
7376;BME280;3728;42.266;24.944;2023-04-01T12:23:21;97973.34;;;23.68;44.65
7376;BME280;3728;42.266;24.944;2023-04-01T12:44:57;97934.34;;;23.42;45.25
7376;BME280;3728;42.266;24.944;2023-04-01T12:48:27;97927.66;;;23.50;44.56
7376;BME280;3728;42.266;24.944;2023-04-01T13:01:08;97893.25;;;22.79;48.71
7376;BME280;3728;42.266;24.944;2023-04-01T13:19:17;97884.75;;;21.48;52.42
7376;BME280;3728;42.266;24.944;2023-04-01T13:25:45;97872.63;;;21.07;53.04
7376;BME280;3728;42.266;24.944;2023-04-01T13:31:16;97874.56;;;20.80;54.67
7376;BME280;3728;42.266;24.944;2023-04-01T13:43:19;97958.78;;;19.53;54.57
7376;BME280;3728;42.266;24.944;2023-04-01T13:46:08;97991.41;;;19.09;55.57
7376;BME280;3728;42.266;24.944;2023-04-01T14:03:32;98020.28;;;17.24;66.06
7376;BME280;3728;42.266;24.944;2023-04-01T14:06:38;98061.34;;;16.51;71.41
7376;BME280;3728;42.266;24.944;2023-04-01T14:24:36;98090.50;;;15.38;86.61
7376;BME280;3728;42.266;24.944;2023-04-01T14:30:38;98068.69;;;15.41;87.53
7376;BME280;3728;42.266;24.944;2023-04-01T14:36:53;98064.66;;;15.54;86.18
7376;BME280;3728;42.266;24.944;2023-04-01T14:40:05;98070.72;;;15.58;84.85
7376;BME280;3728;42.266;24.944;2023-04-01T14:45:55;98072.22;;;16.35;82.02
7376;BME280;3728;42.266;24.944;2023-04-01T14:49:04;98054.97;;;16.66;79.33
7376;BME280;3728;42.266;24.944;2023-04-01T14:51:41;98050.47;;;17.65;74.09
7376;BME280;3728;42.266;24.944;2023-04-01T14:56:51;98061.50;;;18.54;65.33
7376;BME280;3728;42.266;24.944;2023-04-01T14:59:40;98083.28;;;18.93;63.01
7376;BME280;3728;42.266;24.944;2023-04-01T15:08:53;98100.97;;;18.34;63.64
7376;BME280;3728;42.266;24.944;2023-04-01T15:32:00;98064.81;;;16.79;72.75
7376;BME280;3728;42.266;24.944;2023-04-01T15:41:07;98070.78;;;16.48;76.50
7376;BME280;3728;42.266;24.944;2023-04-01T15:43:45;98077.31;;;17.00;74.80
7376;BME280;3728;42.266;24.944;2023-04-01T15:46:43;98079.22;;;17.17;74.12
7376;BME280;3728;42.266;24.944;2023-04-01T16:06:41;98105.69;;;15.45;83.13
7376;BME280;3728;42.266;24.944;2023-04-01T16:12:28;98114.56;;;15.30;83.79
7376;BME280;3728;42.266;24.944;2023-04-01T16:20:35;98128.06;;;15.21;84.59
7376;BME280;3728;42.266;24.944;2023-04-01T16:23:55;98128.97;;;15.39;83.58
7376;BME280;3728;42.266;24.944;2023-04-01T16:27:14;98129.88;;;15.17;84.77
7376;BME280;3728;42.266;24.944;2023-04-01T16:32:54;98155.47;;;15.13;85.16
7376;BME280;3728;42.266;24.944;2023-04-01T16:41:20;98173.63;;;15.18;85.15
7376;BME280;3728;42.266;24.944;2023-04-01T16:43:56;98185.41;;;15.31;83.84
7376;BME280;3728;42.266;24.944;2023-04-01T16:46:53;98177.66;;;15.08;85.34
7376;BME280;3728;42.266;24.944;2023-04-01T16:50:14;98177.81;;;15.26;84.37
7376;BME280;3728;42.266;24.944;2023-04-01T16:55:54;98181.06;;;15.09;85.20
7376;BME280;3728;42.266;24.944;2023-04-01T17:12:40;98213.50;;;15.13;85.27
7376;BME280;3728;42.266;24.944;2023-04-01T17:22:20;98217.59;;;14.77;90.05
7376;BME280;3728;42.266;24.944;2023-04-01T17:25:32;98141.13;;;14.41;94.16
7376;BME280;3728;42.266;24.944;2023-04-01T17:43:53;98243.75;;;14.60;90.61
7376;BME280;3728;42.266;24.944;2023-04-01T17:47:14;98266.88;;;14.47;91.87
7376;BME280;3728;42.266;24.944;2023-04-01T18:02:01;98321.47;;;14.01;94.35
7376;BME280;3728;42.266;24.944;2023-04-01T18:23:23;98307.22;;;14.28;77.57
7376;BME280;3728;42.266;24.944;2023-04-01T18:32:02;98343.81;;;14.33;75.76
7376;BME280;3728;42.266;24.944;2023-04-01T18:40:35;98349.94;;;14.18;76.87
7376;BME280;3728;42.266;24.944;2023-04-01T18:43:30;98348.19;;;14.03;77.56
7376;BME280;3728;42.266;24.944;2023-04-01T18:46:39;98342.00;;;13.73;78.93
7376;BME280;3728;42.266;24.944;2023-04-01T18:50:30;98323.28;;;13.78;79.08
7376;BME280;3728;42.266;24.944;2023-04-01T18:53:28;98330.25;;;13.67;79.78
7376;BME280;3728;42.266;24.944;2023-04-01T18:56:35;98338.50;;;13.65;79.69
7376;BME280;3728;42.266;24.944;2023-04-01T18:59:10;98339.19;;;13.62;80.04
7376;BME280;3728;42.266;24.944;2023-04-01T19:02:08;98340.72;;;13.44;80.63
7376;BME280;3728;42.266;24.944;2023-04-01T19:05:07;98343.06;;;13.30;81.06
7376;BME280;3728;42.266;24.944;2023-04-01T19:21:36;98369.06;;;12.66;85.49
7376;BME280;3728;42.266;24.944;2023-04-01T19:33:16;98382.78;;;12.59;82.92
7376;BME280;3728;42.266;24.944;2023-04-01T19:53:31;98382.34;;;12.10;82.75
7376;BME280;3728;42.266;24.944;2023-04-01T19:56:22;98389.69;;;11.89;84.66
7376;BME280;3728;42.266;24.944;2023-04-01T20:04:50;98408.63;;;11.71;82.72
7376;BME280;3728;42.266;24.944;2023-04-01T20:07:35;98398.63;;;11.88;80.99
7376;BME280;3728;42.266;24.944;2023-04-01T20:10:38;98402.84;;;11.77;81.84
7376;BME280;3728;42.266;24.944;2023-04-01T20:13:32;98410.53;;;11.70;81.42
7376;BME280;3728;42.266;24.944;2023-04-01T20:16:40;98417.47;;;11.78;79.79
7376;BME280;3728;42.266;24.944;2023-04-01T20:19:53;98419.66;;;11.76;79.67
7376;BME280;3728;42.266;24.944;2023-04-01T20:28:22;98428.09;;;11.70;78.82
7376;BME280;3728;42.266;24.944;2023-04-01T20:31:11;98432.31;;;11.46;79.83
7376;BME280;3728;42.266;24.944;2023-04-01T20:40:12;98434.41;;;11.29;79.38
7376;BME280;3728;42.266;24.944;2023-04-01T20:49:23;98431.09;;;11.44;77.49
7376;BME280;3728;42.266;24.944;2023-04-01T21:06:31;98450.09;;;11.53;75.17
7376;BME280;3728;42.266;24.944;2023-04-01T21:12:37;98455.66;;;11.51;74.44
7376;BME280;3728;42.266;24.944;2023-04-01T21:15:26;98459.78;;;11.64;73.64
7376;BME280;3728;42.266;24.944;2023-04-01T21:28:03;98472.34;;;11.71;72.04
7376;BME280;3728;42.266;24.944;2023-04-01T21:37:08;98482.97;;;11.75;72.25
7376;BME280;3728;42.266;24.944;2023-04-01T21:51:33;98482.84;;;11.71;70.94
7376;BME280;3728;42.266;24.944;2023-04-01T22:09:07;98514.13;;;11.40;74.19
7376;BME280;3728;42.266;24.944;2023-04-01T22:12:04;98516.06;;;11.31;74.26
7376;BME280;3728;42.266;24.944;2023-04-01T22:15:02;98528.97;;;11.36;74.20
7376;BME280;3728;42.266;24.944;2023-04-01T22:18:04;98538.22;;;11.21;74.78
7376;BME280;3728;42.266;24.944;2023-04-01T22:20:50;98552.88;;;11.22;74.71
7376;BME280;3728;42.266;24.944;2023-04-01T22:23:31;98549.38;;;11.06;76.54
7376;BME280;3728;42.266;24.944;2023-04-01T22:26:18;98559.41;;;11.04;78.20
7376;BME280;3728;42.266;24.944;2023-04-01T22:29:34;98566.59;;;11.07;77.89
7376;BME280;3728;42.266;24.944;2023-04-01T22:32:05;98552.63;;;10.91;77.53
7376;BME280;3728;42.266;24.944;2023-04-01T22:41:02;98550.59;;;11.45;72.53
7376;BME280;3728;42.266;24.944;2023-04-01T22:43:42;98559.22;;;11.57;71.81
7376;BME280;3728;42.266;24.944;2023-04-01T22:49:29;98563.03;;;11.60;72.83
7376;BME280;3728;42.266;24.944;2023-04-01T22:52:12;98539.22;;;11.53;73.82
7376;BME280;3728;42.266;24.944;2023-04-01T22:54:52;98548.72;;;11.33;74.70
7376;BME280;3728;42.266;24.944;2023-04-01T22:57:52;98542.19;;;11.27;75.53
7376;BME280;3728;42.266;24.944;2023-04-01T23:00:47;98548.59;;;11.06;75.96
7376;BME280;3728;42.266;24.944;2023-04-01T23:03:43;98545.00;;;10.98;76.16
7376;BME280;3728;42.266;24.944;2023-04-01T23:06:18;98546.50;;;10.87;76.33
7376;BME280;3728;42.266;24.944;2023-04-01T23:08:59;98558.53;;;11.00;75.98
7376;BME280;3728;42.266;24.944;2023-04-01T23:14:36;98556.25;;;10.98;75.15
7376;BME280;3728;42.266;24.944;2023-04-01T23:17:39;98562.56;;;11.10;74.90
7376;BME280;3728;42.266;24.944;2023-04-01T23:20:39;98571.41;;;11.05;74.77
7376;BME280;3728;42.266;24.944;2023-04-01T23:29:23;98572.06;;;11.14;73.91
7376;BME280;3728;42.266;24.944;2023-04-01T23:32:01;98578.44;;;11.13;73.18
7376;BME280;3728;42.266;24.944;2023-04-01T23:34:32;98573.84;;;11.22;73.11
7376;BME280;3728;42.266;24.944;2023-04-01T23:37:08;98570.34;;;11.18;72.87
7376;BME280;3728;42.266;24.944;2023-04-01T23:42:37;98576.91;;;11.24;72.31
7376;BME280;3728;42.266;24.944;2023-04-01T23:45:17;98564.91;;;11.23;71.78
7376;BME280;3728;42.266;24.944;2023-04-01T23:47:48;98579.53;;;11.24;71.00
7376;BME280;3728;42.266;24.944;2023-04-01T23:50:20;98575.16;;;11.28;71.10
7376;BME280;3728;42.266;24.944;2023-04-01T23:53:20;98564.91;;;11.23;71.96
7376;BME280;3728;42.266;24.944;2023-04-01T23:55:51;98572.53;;;11.28;72.00
7376;BME280;3728;42.266;24.944;2023-04-01T23:58:38;98579.72;;;11.07;72.67
